createdAt,value
2019-04-04T05:06:16.945Z,5.60
2019-04-04T05:08:44.238Z,5.60
2019-04-04T05:11:14.291Z,5.50
2019-04-04T05:13:40.559Z,5.50
2019-04-04T05:16:08.999Z,5.60
2019-04-04T05:18:36.278Z,5.60
2019-04-04T05:21:03.753Z,5.50
2019-04-04T05:23:30.910Z,5.50
2019-04-04T05:25:58.064Z,5.50
2019-04-04T05:28:25.216Z,5.40
2019-04-04T05:30:52.582Z,5.40
2019-04-04T05:33:22.621Z,5.50
2019-04-04T05:35:49.946Z,5.50
2019-04-04T05:38:17.220Z,5.50
2019-04-04T05:40:44.470Z,5.60
2019-04-04T05:43:14.749Z,5.60
2019-04-04T05:45:40.889Z,5.60
2019-04-04T05:48:08.250Z,5.70
2019-04-04T05:50:35.506Z,5.80
2019-04-04T05:53:04.282Z,5.80
2019-04-04T05:55:31.836Z,5.90
2019-04-04T05:57:59.022Z,5.80
2019-04-04T06:00:27.465Z,5.70
2019-04-04T06:02:55.333Z,5.60
2019-04-04T06:05:22.612Z,5.70
2019-04-04T06:07:50.014Z,5.70
2019-04-04T06:10:18.539Z,5.70
2019-04-04T06:12:46.415Z,5.70
2019-04-04T06:15:13.886Z,5.70
2019-04-04T06:17:41.161Z,5.70
2019-04-04T06:20:09.218Z,5.80
2019-04-04T06:22:36.470Z,5.80
2019-04-04T06:25:05.216Z,5.80
2019-04-04T06:27:32.480Z,5.90
2019-04-04T06:29:59.626Z,5.90
2019-04-04T06:32:26.780Z,5.90
2019-04-04T06:34:56.562Z,6.00
2019-04-04T06:37:23.252Z,6.00
2019-04-04T06:39:50.710Z,6.00
2019-04-04T06:42:17.969Z,6.10
2019-04-04T06:44:45.153Z,6.10
2019-04-04T06:47:12.307Z,6.20
2019-04-04T06:49:39.457Z,6.20
2019-04-04T06:52:09.277Z,6.20
2019-04-04T06:54:35.897Z,6.30
2019-04-04T06:57:03.898Z,6.20
2019-04-04T06:59:32.312Z,6.30
2019-04-04T07:01:59.966Z,6.30
2019-04-04T07:04:27.102Z,6.30
2019-04-04T07:06:54.476Z,6.30
2019-04-04T07:09:21.683Z,6.30
2019-04-04T07:11:48.799Z,6.30
2019-04-04T07:14:15.957Z,6.30
2019-04-04T07:16:43.153Z,6.30
2019-04-04T07:19:14.191Z,6.30
2019-04-04T07:21:39.419Z,6.30
2019-04-04T07:24:06.657Z,6.30
2019-04-04T07:26:33.930Z,6.30
2019-04-04T07:29:01.195Z,6.30
2019-04-04T07:31:28.342Z,6.20
2019-04-04T07:33:55.513Z,6.30
2019-04-04T07:36:22.868Z,6.20
2019-04-04T07:38:50.086Z,6.20
2019-04-04T07:41:17.258Z,6.20
2019-04-04T07:43:44.409Z,6.20
2019-04-04T07:46:16.565Z,6.10
2019-04-04T07:48:40.714Z,6.20
2019-04-04T07:51:08.012Z,6.20
2019-04-04T07:53:36.444Z,6.20
2019-04-04T07:56:04.517Z,6.20
2019-04-04T07:58:31.796Z,6.30
2019-04-04T08:00:58.982Z,6.20
2019-04-04T08:03:26.228Z,6.20
2019-04-04T08:05:53.375Z,6.20
2019-04-04T08:08:20.626Z,6.20
2019-04-04T08:10:47.881Z,6.30
2019-04-04T08:13:15.254Z,6.30
2019-04-04T08:15:42.507Z,6.20
2019-04-04T08:18:09.660Z,6.30
2019-04-04T08:20:37.211Z,6.40
2019-04-04T08:23:04.499Z,6.40
2019-04-04T08:25:31.654Z,6.50
2019-04-04T08:27:58.823Z,6.50
2019-04-04T08:30:26.396Z,6.40
2019-04-04T08:32:53.534Z,6.40
2019-04-04T08:35:20.669Z,6.50
2019-04-04T08:37:47.961Z,6.60
2019-04-04T08:40:15.394Z,6.60
2019-04-04T08:42:42.539Z,6.70
2019-04-04T08:45:10.103Z,6.80
2019-04-04T08:47:37.453Z,6.80
2019-04-04T08:50:05.159Z,6.80
2019-04-04T08:52:32.417Z,6.80
2019-04-04T08:54:59.676Z,6.90
2019-04-04T08:57:27.017Z,6.90
2019-04-04T08:59:54.161Z,6.90
2019-04-04T09:02:21.573Z,7.10
2019-04-04T09:04:48.716Z,7.00
2019-04-04T09:07:15.880Z,7.10
2019-04-04T09:09:43.203Z,7.00
2019-04-04T09:12:10.915Z,7.00
2019-04-04T09:14:40.944Z,7.00
2019-04-04T09:17:07.778Z,7.00
2019-04-04T09:19:35.052Z,7.10
2019-04-04T09:22:02.569Z,7.10
2019-04-04T09:24:29.745Z,7.30
2019-04-04T09:26:57.149Z,7.30
2019-04-04T09:29:24.409Z,7.20
2019-04-04T09:31:51.755Z,7.30
2019-04-04T09:34:19.016Z,7.30
2019-04-04T09:36:46.283Z,7.50
2019-04-04T09:39:13.660Z,7.60
2019-04-04T09:41:40.926Z,7.70
2019-04-04T09:44:08.285Z,7.80
2019-04-04T09:46:35.543Z,7.80
2019-04-04T09:49:03.103Z,7.90
2019-04-04T09:51:30.359Z,8.10
2019-04-04T09:53:57.497Z,8.00
2019-04-04T09:56:24.860Z,7.90
2019-04-04T09:58:54.772Z,7.90
2019-04-04T10:01:21.377Z,8.00
2019-04-04T10:03:48.986Z,8.10
2019-04-04T10:06:16.252Z,8.10
2019-04-04T10:08:43.411Z,8.10
2019-04-04T10:11:10.593Z,8.20
2019-04-04T10:13:37.842Z,8.30
2019-04-04T10:16:05.401Z,8.40
2019-04-04T10:18:32.667Z,8.50
2019-04-04T10:21:11.119Z,8.60
2019-04-04T10:23:28.857Z,8.40
2019-04-04T10:25:56.013Z,8.30
2019-04-04T10:28:23.565Z,8.40
2019-04-04T10:30:50.885Z,8.30
2019-04-04T10:33:18.050Z,8.30
2019-04-04T10:35:45.319Z,8.30
2019-04-04T10:38:12.579Z,8.30
2019-04-04T10:40:39.846Z,8.30
2019-04-04T10:43:06.983Z,8.60
2019-04-04T10:45:34.233Z,8.50
2019-04-04T10:48:01.490Z,8.40
2019-04-04T10:50:28.732Z,8.50
2019-04-04T10:52:56.213Z,8.40
2019-04-04T10:55:23.769Z,8.30
2019-04-04T10:57:51.014Z,8.20
2019-04-04T11:00:18.782Z,8.20
2019-04-04T11:02:45.983Z,8.00
2019-04-04T11:05:13.634Z,8.10
2019-04-04T11:07:40.895Z,8.10
2019-04-04T11:10:08.586Z,8.20
2019-04-04T11:12:35.829Z,8.00
2019-04-04T11:15:03.773Z,8.20
2019-04-04T11:17:30.991Z,8.30
2019-04-04T11:19:58.253Z,8.30
2019-04-04T11:22:25.428Z,8.20
2019-04-04T11:24:52.596Z,8.30
2019-04-04T11:27:19.763Z,8.30
2019-04-04T11:29:47.105Z,8.30
2019-04-04T11:32:14.483Z,8.40
2019-04-04T11:34:52.663Z,8.20
2019-04-04T11:37:10.801Z,8.20
2019-04-04T11:39:38.434Z,8.20
2019-04-04T11:42:06.078Z,8.10
2019-04-04T11:44:33.750Z,8.20
2019-04-04T11:47:01.295Z,8.20
2019-04-04T11:49:28.553Z,8.20
2019-04-04T11:51:56.013Z,8.20
2019-04-04T11:54:23.846Z,8.30
2019-04-04T11:56:51.392Z,8.10
2019-04-04T11:59:19.015Z,8.20
2019-04-04T12:01:46.582Z,8.00
2019-04-04T12:04:14.719Z,8.20
2019-04-04T12:06:42.283Z,7.80
2019-04-04T12:09:09.558Z,8.00
2019-04-04T12:11:36.890Z,8.00
2019-04-04T12:14:05.016Z,8.20
2019-04-04T12:16:32.957Z,8.10
2019-04-04T12:19:00.456Z,8.10
2019-04-04T12:21:27.621Z,8.20
2019-04-04T12:23:54.870Z,8.10
2019-04-04T12:26:22.139Z,8.20
2019-04-04T12:28:49.676Z,8.20
2019-04-04T12:31:17.237Z,8.30
2019-04-04T12:33:44.698Z,8.40
2019-04-04T12:36:23.819Z,8.40
2019-04-04T12:38:41.335Z,8.40
2019-04-04T12:41:08.790Z,8.30
2019-04-04T12:43:36.525Z,8.30
2019-04-04T12:46:03.982Z,8.10
2019-04-04T12:48:31.544Z,8.10
2019-04-04T12:50:58.919Z,8.20
2019-04-04T12:53:26.228Z,8.20
2019-04-04T12:55:54.315Z,8.20
2019-04-04T12:58:22.290Z,8.10
2019-04-04T13:00:49.701Z,8.20
2019-04-04T13:03:17.195Z,8.00
2019-04-04T13:05:44.376Z,8.00
2019-04-04T13:08:11.751Z,8.20
2019-04-04T13:10:39.279Z,8.30
2019-04-04T13:13:06.843Z,8.10
2019-04-04T13:15:34.177Z,8.20
2019-04-04T13:18:01.576Z,8.10
2019-04-04T13:20:29.319Z,8.00
2019-04-04T13:22:56.853Z,7.80
2019-04-04T13:25:24.207Z,8.20
2019-04-04T13:27:51.951Z,8.10
2019-04-04T13:30:19.912Z,8.10
2019-04-04T13:32:47.233Z,8.20
2019-04-04T13:35:14.595Z,8.20
2019-04-04T13:37:42.427Z,8.50
2019-04-04T13:40:10.212Z,8.60
2019-04-04T13:42:37.857Z,8.40
2019-04-04T13:45:07.472Z,8.40
2019-04-04T13:47:38.097Z,8.20
2019-04-04T13:50:06.098Z,8.10
2019-04-04T13:52:34.152Z,8.20
2019-04-04T13:55:01.505Z,7.90
2019-04-04T13:57:28.698Z,7.80
2019-04-04T13:59:55.958Z,8.00
2019-04-04T14:02:23.478Z,7.80
2019-04-04T14:04:50.748Z,8.00
2019-04-04T14:07:18.010Z,7.60
2019-04-04T14:09:45.361Z,7.80
2019-04-04T14:12:14.327Z,7.80
2019-04-04T14:14:42.130Z,7.40
2019-04-04T14:17:09.414Z,7.60
2019-04-04T14:19:39.219Z,7.50
2019-04-04T14:22:06.851Z,7.70
2019-04-04T14:24:34.469Z,7.80
2019-04-04T14:27:03.716Z,7.80
2019-04-04T14:29:31.142Z,7.80
2019-04-04T14:31:58.409Z,7.80
2019-04-04T14:34:25.892Z,7.80
2019-04-04T14:36:55.503Z,7.60
2019-04-04T14:39:22.940Z,7.90
2019-04-04T14:41:50.261Z,7.90
2019-04-04T14:44:17.923Z,7.60
2019-04-04T14:46:48.314Z,7.50
2019-04-04T14:49:17.203Z,7.50
2019-04-04T14:51:48.642Z,7.70
2019-04-04T14:54:18.417Z,7.70
2019-04-04T14:56:48.862Z,7.80
2019-04-04T14:59:16.286Z,8.00
2019-04-04T15:01:43.693Z,7.90
2019-04-04T15:04:11.033Z,7.90
2019-04-04T15:06:38.313Z,8.10
2019-04-04T15:09:09.105Z,7.80
2019-04-04T15:11:36.546Z,8.00
2019-04-04T15:14:03.994Z,7.80
2019-04-04T15:16:31.664Z,7.70
2019-04-04T15:18:58.918Z,7.60
2019-04-04T15:21:26.166Z,7.70
2019-04-04T15:23:53.347Z,7.70
2019-04-04T15:26:20.619Z,7.70
2019-04-04T15:28:48.105Z,7.60
2019-04-04T15:31:15.631Z,7.70
2019-04-04T15:33:43.087Z,7.60
2019-04-04T15:36:10.580Z,7.60
2019-04-04T15:38:37.871Z,7.90
2019-04-04T15:41:05.616Z,8.00
2019-04-04T15:43:32.881Z,8.20
2019-04-04T15:46:00.226Z,8.10
2019-04-04T15:48:27.613Z,8.00
2019-04-04T15:50:59.598Z,7.70
2019-04-04T15:53:29.827Z,7.70
2019-04-04T15:56:00.337Z,7.70
2019-04-04T15:58:27.777Z,7.80
2019-04-04T16:00:55.184Z,7.80
2019-04-04T16:03:22.541Z,7.90
2019-04-04T16:05:49.685Z,7.80
2019-04-04T16:08:17.127Z,7.80
2019-04-04T16:10:47.701Z,7.30
2019-04-04T16:13:15.254Z,7.40
2019-04-04T16:15:42.413Z,7.20
2019-04-04T16:18:10.943Z,7.10
2019-04-04T16:20:38.332Z,7.10
2019-04-04T16:23:05.611Z,7.20
2019-04-04T16:25:33.274Z,7.30
2019-04-04T16:28:00.702Z,7.20
2019-04-04T16:30:27.903Z,7.10
2019-04-04T16:32:55.385Z,7.10
2019-04-04T16:35:22.908Z,7.00
2019-04-04T16:37:50.390Z,7.00
2019-04-04T16:40:20.016Z,6.90
2019-04-04T16:42:47.590Z,6.90
2019-04-04T16:45:15.085Z,6.80
2019-04-04T16:47:42.971Z,6.80
2019-04-04T16:50:11.365Z,6.70
2019-04-04T16:52:38.790Z,6.80
2019-04-04T16:55:07.028Z,6.60
2019-04-04T16:57:34.416Z,6.60
2019-04-04T17:00:05.351Z,6.60
2019-04-04T17:02:34.274Z,6.60
2019-04-04T17:05:01.775Z,6.60
2019-04-04T17:07:29.145Z,6.60
2019-04-04T17:09:59.390Z,6.60
2019-04-04T17:12:26.730Z,6.70
2019-04-04T17:14:53.991Z,6.60
2019-04-04T17:17:21.379Z,6.60
2019-04-04T17:19:48.697Z,6.60
2019-04-04T17:22:15.979Z,6.60
2019-04-04T17:24:43.473Z,6.60
2019-04-04T17:27:10.757Z,6.60
2019-04-04T17:29:38.527Z,6.50
2019-04-04T17:32:06.400Z,6.50
2019-04-04T17:34:34.063Z,6.70
2019-04-04T17:37:01.536Z,6.80
2019-04-04T17:39:28.963Z,6.80
2019-04-04T17:41:56.126Z,6.70
2019-04-04T17:44:23.997Z,6.70
2019-04-04T17:46:51.716Z,6.70
2019-04-04T17:49:19.250Z,6.70
2019-04-04T17:51:46.911Z,6.60
2019-04-04T17:54:14.357Z,6.50
2019-04-04T17:56:42.121Z,6.50
2019-04-04T17:59:09.554Z,6.40
2019-04-04T18:01:38.229Z,6.40
2019-04-04T18:04:05.701Z,6.40
2019-04-04T18:06:32.850Z,6.40
2019-04-04T18:09:00.095Z,6.40
2019-04-04T18:11:27.537Z,6.30
2019-04-04T18:13:54.794Z,6.40
2019-04-04T18:16:22.046Z,6.40
2019-04-04T18:18:49.568Z,6.60
2019-04-04T18:21:17.138Z,6.50
2019-04-04T18:23:44.860Z,6.50
2019-04-04T18:26:12.356Z,6.40
2019-04-04T18:28:39.836Z,6.30
2019-04-04T18:31:07.220Z,6.20
2019-04-04T18:33:36.698Z,6.30
2019-04-04T18:36:04.670Z,6.30
2019-04-04T18:38:32.118Z,6.30
2019-04-04T18:40:59.810Z,6.30
2019-04-04T18:43:27.081Z,6.30
2019-04-04T18:45:55.879Z,6.40
2019-04-04T18:48:23.184Z,6.40
2019-04-04T18:51:00.283Z,6.40
2019-04-04T18:53:29.534Z,6.30
2019-04-04T18:55:59.917Z,6.20
2019-04-04T18:58:27.700Z,6.20
2019-04-04T19:00:55.292Z,6.20
2019-04-04T19:03:23.753Z,6.30
2019-04-04T19:05:52.745Z,6.30
2019-04-04T19:08:23.081Z,6.20
2019-04-04T19:10:52.966Z,6.30
2019-04-04T19:13:20.495Z,6.30
2019-04-04T19:15:49.316Z,6.20
2019-04-04T19:18:16.827Z,6.20
2019-04-04T19:20:44.420Z,6.30
2019-04-04T19:23:12.035Z,6.20
2019-04-04T19:25:39.553Z,6.10
2019-04-04T19:28:10.220Z,6.10
2019-04-04T19:30:38.553Z,6.00
2019-04-04T19:33:06.360Z,6.00
2019-04-04T19:35:41.589Z,6.10
2019-04-04T19:38:11.695Z,6.20
2019-04-04T19:40:41.196Z,6.20
2019-04-04T19:43:18.288Z,6.20
2019-04-04T19:45:43.363Z,6.20
2019-04-04T19:48:10.853Z,6.20
2019-04-04T19:50:39.325Z,6.10
2019-04-04T19:53:07.200Z,6.10
2019-04-04T19:55:34.562Z,6.10
2019-04-04T19:58:01.841Z,6.10
2019-04-04T20:00:31.998Z,6.10
2019-04-04T20:02:58.350Z,6.20
2019-04-04T20:05:26.058Z,6.20
2019-04-04T20:07:53.637Z,6.20
2019-04-04T20:10:21.058Z,6.20
2019-04-04T20:12:48.428Z,6.10
2019-04-04T20:15:15.990Z,6.20
2019-04-04T20:17:43.214Z,6.10
2019-04-04T20:20:11.183Z,6.20
2019-04-04T20:22:38.946Z,6.10
2019-04-04T20:25:06.631Z,6.10
2019-04-04T20:27:34.095Z,6.10
2019-04-04T20:30:01.652Z,6.10
2019-04-04T20:32:29.019Z,6.10
2019-04-04T20:34:56.423Z,6.10
2019-04-04T20:37:23.814Z,6.10
2019-04-04T20:39:51.065Z,6.00
2019-04-04T20:42:18.307Z,6.00
2019-04-04T20:44:45.537Z,5.90
2019-04-04T20:47:12.955Z,5.90
2019-04-04T20:49:40.228Z,5.90
2019-04-04T20:52:07.667Z,5.90
2019-04-04T20:54:35.038Z,5.80
2019-04-04T20:57:02.526Z,5.80
2019-04-04T20:59:29.801Z,5.80
2019-04-04T21:01:57.785Z,5.90
2019-04-04T21:04:25.058Z,5.90
2019-04-04T21:06:53.832Z,5.80
2019-04-04T21:09:21.268Z,5.70
2019-04-04T21:11:48.749Z,5.80
2019-04-04T21:14:16.113Z,5.80
2019-04-04T21:16:43.622Z,5.80
2019-04-04T21:19:10.924Z,5.80
2019-04-04T21:21:38.210Z,5.80
2019-04-04T21:24:06.619Z,5.80
2019-04-04T21:26:33.941Z,5.80
2019-04-04T21:29:01.112Z,6.00
2019-04-04T21:31:28.764Z,6.00
2019-04-04T21:33:56.144Z,5.80
2019-04-04T21:36:23.501Z,5.70
2019-04-04T21:38:51.111Z,5.80
2019-04-04T21:41:18.382Z,5.80
2019-04-04T21:43:45.674Z,5.90
2019-04-04T21:46:12.930Z,5.80
2019-04-04T21:48:40.476Z,5.80
2019-04-04T21:51:07.748Z,5.90
2019-04-04T21:53:35.223Z,5.90
2019-04-04T21:56:02.647Z,5.80
2019-04-04T21:58:30.249Z,5.80
2019-04-04T22:00:58.940Z,5.80
2019-04-04T22:03:32.110Z,5.90
2019-04-04T22:05:59.990Z,5.90
2019-04-04T22:08:27.318Z,5.80
2019-04-04T22:10:54.711Z,5.80
2019-04-04T22:13:21.998Z,5.80
2019-04-04T22:15:49.395Z,5.80
2019-04-04T22:18:16.615Z,5.70
2019-04-04T22:20:45.093Z,5.80
2019-04-04T22:23:17.603Z,5.70
2019-04-04T22:25:45.203Z,5.60
2019-04-04T22:28:15.539Z,5.60
2019-04-04T22:30:43.900Z,5.60
2019-04-04T22:33:11.157Z,5.60
2019-04-04T22:35:38.517Z,5.60
2019-04-04T22:38:05.918Z,5.50
2019-04-04T22:40:33.612Z,5.60
2019-04-04T22:43:00.897Z,5.50
2019-04-04T22:45:28.261Z,5.50
2019-04-04T22:47:55.663Z,5.40
2019-04-04T22:50:22.830Z,5.40
2019-04-04T22:52:50.690Z,5.40
2019-04-04T22:55:18.055Z,5.30
2019-04-04T22:57:45.554Z,5.30
2019-04-04T23:00:13.724Z,5.30
2019-04-04T23:02:40.868Z,5.30
2019-04-04T23:05:11.602Z,5.30
2019-04-04T23:07:39.092Z,5.30
2019-04-04T23:10:08.270Z,5.30
2019-04-04T23:12:35.867Z,5.30
2019-04-04T23:15:04.001Z,5.30
2019-04-04T23:17:31.413Z,5.30
2019-04-04T23:19:58.574Z,5.20
2019-04-04T23:22:25.997Z,5.20
2019-04-04T23:24:53.280Z,5.20
2019-04-04T23:27:20.431Z,5.20
2019-04-04T23:29:47.828Z,5.20
2019-04-04T23:32:15.402Z,5.30
2019-04-04T23:34:42.552Z,5.40
2019-04-04T23:37:10.034Z,5.30
2019-04-04T23:39:37.229Z,5.30
2019-04-04T23:42:05.012Z,5.40
2019-04-04T23:44:32.158Z,5.50
2019-04-04T23:46:59.440Z,5.40
2019-04-04T23:49:26.648Z,5.30
2019-04-04T23:51:53.824Z,5.40
2019-04-04T23:54:20.980Z,5.40
2019-04-04T23:56:48.221Z,5.40
2019-04-04T23:59:15.429Z,5.40
